createdAt,value
2017-07-23T00:02:18.853Z,86.10
2017-07-23T00:04:47.276Z,86.70
2017-07-23T00:07:15.481Z,87.00
2017-07-23T00:09:43.709Z,86.80
2017-07-23T00:12:11.918Z,86.60
2017-07-23T00:14:40.160Z,84.90
2017-07-23T00:17:09.129Z,85.70
2017-07-23T00:19:37.509Z,85.00
2017-07-23T00:22:06.676Z,85.60
2017-07-23T00:24:35.106Z,85.50
2017-07-23T00:27:03.399Z,85.70
2017-07-23T00:29:31.713Z,86.30
2017-07-23T00:31:59.928Z,86.70
2017-07-23T00:34:28.196Z,86.80
2017-07-23T00:36:57.298Z,87.50
2017-07-23T00:39:25.519Z,87.50
2017-07-23T00:41:53.849Z,87.30
2017-07-23T00:44:22.199Z,87.60
2017-07-23T00:46:50.608Z,87.80
2017-07-23T00:49:19.819Z,88.20
2017-07-23T00:51:48.057Z,88.00
2017-07-23T00:54:17.284Z,88.10
2017-07-23T00:56:46.380Z,87.90
2017-07-23T00:59:14.828Z,87.90
2017-07-23T01:01:43.172Z,88.10
2017-07-23T01:04:11.424Z,89.20
2017-07-23T01:06:39.644Z,89.00
2017-07-23T01:09:07.900Z,89.00
2017-07-23T01:11:36.257Z,89.00
2017-07-23T01:14:04.482Z,89.00
2017-07-23T01:16:33.031Z,88.70
2017-07-23T01:19:01.290Z,89.00
2017-07-23T01:21:30.298Z,89.40
2017-07-23T01:23:58.524Z,89.40
2017-07-23T01:26:26.982Z,89.80
2017-07-23T01:28:55.218Z,89.70
2017-07-23T01:31:24.313Z,89.60
2017-07-23T01:33:53.413Z,90.10
2017-07-23T01:36:21.676Z,90.10
2017-07-23T01:38:49.898Z,90.20
2017-07-23T01:41:18.258Z,90.20
2017-07-23T01:43:46.461Z,90.10
2017-07-23T01:46:14.810Z,90.00
2017-07-23T01:48:43.142Z,89.90
2017-07-23T01:51:11.568Z,89.80
2017-07-23T01:53:39.853Z,89.20
2017-07-23T01:56:08.347Z,89.00
2017-07-23T01:58:36.568Z,88.40
2017-07-23T02:01:04.776Z,88.10
2017-07-23T02:03:33.164Z,88.00
2017-07-23T02:06:01.638Z,88.40
2017-07-23T02:08:30.643Z,88.40
2017-07-23T02:10:58.897Z,88.40
2017-07-23T02:13:27.713Z,88.60
2017-07-23T02:15:55.962Z,88.70
2017-07-23T02:18:24.966Z,89.30
2017-07-23T02:20:53.188Z,88.80
2017-07-23T02:23:21.661Z,88.60
2017-07-23T02:25:49.943Z,88.80
2017-07-23T02:28:18.155Z,89.10
2017-07-23T02:30:46.377Z,88.90
2017-07-23T02:33:14.621Z,89.00
2017-07-23T02:35:42.833Z,88.80
2017-07-23T02:38:11.058Z,88.80
2017-07-23T02:40:39.373Z,88.70
2017-07-23T02:43:07.651Z,88.40
2017-07-23T02:45:36.774Z,88.80
2017-07-23T02:48:05.429Z,88.60
2017-07-23T02:50:33.891Z,88.40
2017-07-23T02:53:02.084Z,88.40
2017-07-23T02:55:30.305Z,88.40
2017-07-23T02:57:58.539Z,88.30
2017-07-23T03:00:26.809Z,88.10
2017-07-23T03:02:57.698Z,88.20
2017-07-23T03:05:26.256Z,88.20
2017-07-23T03:07:54.528Z,88.90
2017-07-23T03:10:22.748Z,88.70
2017-07-23T03:12:50.971Z,88.90
2017-07-23T03:15:19.392Z,89.40
2017-07-23T03:17:47.652Z,89.30
2017-07-23T03:20:15.954Z,88.90
2017-07-23T03:22:44.200Z,88.70
2017-07-23T03:25:12.700Z,88.40
2017-07-23T03:27:40.944Z,88.20
2017-07-23T03:30:10.257Z,88.60
2017-07-23T03:32:38.487Z,88.60
2017-07-23T03:35:07.008Z,88.40
2017-07-23T03:37:35.988Z,88.20
2017-07-23T03:40:04.205Z,88.20
2017-07-23T03:42:32.639Z,88.40
2017-07-23T03:45:00.842Z,87.90
2017-07-23T03:47:29.068Z,88.10
2017-07-23T03:49:57.280Z,88.30
2017-07-23T03:52:25.538Z,88.50
2017-07-23T03:54:53.761Z,88.40
2017-07-23T03:57:22.107Z,88.80
2017-07-23T03:59:51.300Z,89.60
2017-07-23T04:02:19.543Z,89.50
2017-07-23T04:04:47.805Z,89.50
2017-07-23T04:07:16.136Z,89.10
2017-07-23T04:09:44.541Z,89.70
2017-07-23T04:12:12.821Z,89.90
2017-07-23T04:14:41.050Z,90.20
2017-07-23T04:17:09.337Z,90.10
2017-07-23T04:19:37.545Z,89.80
2017-07-23T04:22:06.137Z,89.90
2017-07-23T04:24:34.604Z,89.60
2017-07-23T04:27:03.318Z,89.60
2017-07-23T04:29:31.632Z,89.10
2017-07-23T04:32:00.549Z,88.70
2017-07-23T04:34:28.945Z,88.50
2017-07-23T04:36:57.922Z,87.70
2017-07-23T04:39:26.144Z,87.60
2017-07-23T04:41:54.339Z,88.30
2017-07-23T04:44:22.569Z,89.10
2017-07-23T04:46:50.949Z,88.80
2017-07-23T04:49:19.945Z,88.00
2017-07-23T04:51:48.168Z,88.00
2017-07-23T04:54:16.382Z,87.60
2017-07-23T04:56:45.380Z,88.30
2017-07-23T04:59:13.640Z,87.40
2017-07-23T05:01:41.867Z,87.40
2017-07-23T05:04:10.115Z,87.30
2017-07-23T05:06:38.328Z,87.40
2017-07-23T05:09:06.744Z,87.70
2017-07-23T05:11:35.173Z,87.30
2017-07-23T05:14:03.449Z,87.30
2017-07-23T05:16:31.669Z,87.40
2017-07-23T05:18:59.891Z,87.50
2017-07-23T05:21:28.131Z,87.30
2017-07-23T05:23:56.445Z,87.10
2017-07-23T05:26:24.661Z,87.30
2017-07-23T05:28:52.892Z,86.70
2017-07-23T05:31:21.885Z,85.00
2017-07-23T05:33:50.269Z,85.00
2017-07-23T05:36:19.254Z,83.00
2017-07-23T05:38:47.472Z,82.80
2017-07-23T05:41:15.688Z,83.80
2017-07-23T05:43:44.201Z,82.40
2017-07-23T05:46:13.506Z,79.50
2017-07-23T05:48:42.500Z,78.30
2017-07-23T05:51:10.788Z,78.20
2017-07-23T05:53:39.019Z,74.90
2017-07-23T05:56:07.225Z,69.10
2017-07-23T05:58:35.560Z,65.50
2017-07-23T06:01:03.813Z,62.00
2017-07-23T06:03:32.073Z,57.90
2017-07-23T06:06:00.569Z,55.40
2017-07-23T06:08:29.025Z,55.50
2017-07-23T06:10:58.136Z,55.10
2017-07-23T06:13:27.375Z,55.00
2017-07-23T06:15:55.568Z,58.00
2017-07-23T06:18:23.865Z,53.30
2017-07-23T06:20:52.266Z,53.70
2017-07-23T06:23:21.244Z,53.00
2017-07-23T06:25:49.480Z,53.10
2017-07-23T06:28:17.912Z,52.40
2017-07-23T06:30:46.912Z,54.60
2017-07-23T06:33:15.116Z,54.60
2017-07-23T06:35:43.379Z,55.50
2017-07-23T06:38:11.619Z,56.20
2017-07-23T06:40:39.928Z,56.40
2017-07-23T06:43:08.141Z,58.40
2017-07-23T06:45:36.392Z,58.80
2017-07-23T06:48:04.627Z,55.30
2017-07-23T06:50:32.840Z,55.40
2017-07-23T06:53:01.104Z,53.90
2017-07-23T06:55:29.620Z,53.40
2017-07-23T06:57:57.840Z,54.60
2017-07-23T07:00:26.222Z,51.20
2017-07-23T07:02:54.377Z,50.90
2017-07-23T07:05:22.664Z,48.20
2017-07-23T07:07:50.853Z,46.10
2017-07-23T07:10:19.085Z,47.40
2017-07-23T07:12:47.572Z,45.60
2017-07-23T07:15:15.899Z,43.20
2017-07-23T07:17:44.283Z,42.40
2017-07-23T07:20:13.380Z,42.30
2017-07-23T07:22:41.587Z,42.20
2017-07-23T07:25:09.942Z,41.70
2017-07-23T07:27:38.221Z,43.40
2017-07-23T07:30:06.427Z,40.30
2017-07-23T07:32:34.652Z,38.60
2017-07-23T07:35:02.877Z,39.40
2017-07-23T07:37:31.112Z,39.50
2017-07-23T07:40:00.129Z,42.60
2017-07-23T07:42:28.352Z,42.60
2017-07-23T07:44:56.564Z,43.50
2017-07-23T07:47:25.601Z,43.60
2017-07-23T07:49:53.925Z,43.60
2017-07-23T07:52:22.431Z,43.60
2017-07-23T07:54:50.652Z,44.50
2017-07-23T07:57:18.917Z,46.00
2017-07-23T07:59:47.137Z,47.10
2017-07-23T08:02:15.533Z,47.10
2017-07-23T08:04:44.717Z,48.20
2017-07-23T08:07:12.917Z,48.20
2017-07-23T08:09:41.204Z,43.90
2017-07-23T08:12:09.485Z,44.40
2017-07-23T08:14:37.708Z,45.90
2017-07-23T08:17:05.927Z,44.40
2017-07-23T08:19:34.146Z,48.20
2017-07-23T08:22:02.582Z,45.30
2017-07-23T08:24:30.820Z,46.60
2017-07-23T08:26:59.078Z,47.80
2017-07-23T08:29:27.344Z,43.20
2017-07-23T08:31:55.788Z,39.00
2017-07-23T08:34:23.990Z,36.80
2017-07-23T08:36:52.212Z,35.80
2017-07-23T08:39:20.430Z,36.60
2017-07-23T08:41:48.785Z,37.60
2017-07-23T08:44:17.901Z,37.30
2017-07-23T08:46:46.125Z,37.30
2017-07-23T08:49:14.473Z,38.30
2017-07-23T08:51:42.702Z,38.50
2017-07-23T08:54:10.922Z,37.50
2017-07-23T08:56:39.130Z,37.80
2017-07-23T08:59:07.369Z,37.20
2017-07-23T09:01:35.576Z,36.20
2017-07-23T09:04:03.790Z,36.20
2017-07-23T09:06:32.086Z,36.20
2017-07-23T09:09:00.308Z,31.30
2017-07-23T09:11:28.504Z,33.80
2017-07-23T09:13:56.741Z,30.90
2017-07-23T09:16:24.975Z,29.80
2017-07-23T09:18:53.203Z,34.20
2017-07-23T09:21:21.653Z,28.60
2017-07-23T09:23:49.962Z,28.70
2017-07-23T09:26:18.212Z,29.30
2017-07-23T09:28:46.431Z,29.60
2017-07-23T09:31:14.742Z,30.30
2017-07-23T09:33:42.994Z,32.40
2017-07-23T09:36:11.212Z,35.60
2017-07-23T09:38:39.445Z,35.90
2017-07-23T09:41:07.669Z,34.20
2017-07-23T09:43:35.888Z,36.30
2017-07-23T09:46:04.098Z,38.00
2017-07-23T09:48:32.340Z,38.50
2017-07-23T09:51:00.552Z,39.60
2017-07-23T09:53:28.940Z,39.70
2017-07-23T09:55:57.214Z,40.80
2017-07-23T09:58:25.580Z,41.10
2017-07-23T10:00:53.821Z,41.40
2017-07-23T10:03:22.168Z,40.70
2017-07-23T10:05:50.414Z,40.50
2017-07-23T10:08:18.647Z,40.20
2017-07-23T10:10:46.879Z,42.20
2017-07-23T10:13:15.577Z,42.00
2017-07-23T10:15:44.019Z,42.00
2017-07-23T10:18:12.209Z,42.00
2017-07-23T10:20:40.449Z,44.40
2017-07-23T10:23:08.676Z,44.40
2017-07-23T10:25:36.913Z,44.30
2017-07-23T10:28:05.125Z,45.00
2017-07-23T10:30:33.459Z,43.20
2017-07-23T10:33:01.685Z,44.00
2017-07-23T10:35:29.962Z,46.00
2017-07-23T10:37:58.978Z,45.70
2017-07-23T10:40:27.193Z,45.60
2017-07-23T10:42:55.459Z,43.10
2017-07-23T10:45:23.713Z,37.80
2017-07-23T10:47:52.414Z,39.20
2017-07-23T10:50:20.920Z,38.20
2017-07-23T10:52:49.116Z,33.70
2017-07-23T10:55:17.580Z,32.70
2017-07-23T10:57:46.352Z,31.90
2017-07-23T11:00:14.584Z,29.80
2017-07-23T11:02:45.310Z,30.80
2017-07-23T11:05:14.393Z,30.80
2017-07-23T11:07:42.653Z,35.50
2017-07-23T11:10:10.899Z,30.90
2017-07-23T11:12:39.264Z,31.90
2017-07-23T11:15:07.957Z,29.40
2017-07-23T11:17:36.193Z,30.40
2017-07-23T11:20:04.392Z,31.60
2017-07-23T11:22:32.633Z,33.50
2017-07-23T11:25:00.863Z,35.50
2017-07-23T11:27:29.096Z,35.50
2017-07-23T11:29:57.318Z,35.00
2017-07-23T11:32:26.381Z,34.80
2017-07-23T11:34:54.634Z,35.80
2017-07-23T11:37:22.956Z,37.60
2017-07-23T11:39:51.339Z,36.70
2017-07-23T11:42:21.503Z,37.50
2017-07-23T11:44:49.857Z,37.50
2017-07-23T11:47:18.090Z,36.80
2017-07-23T11:49:46.525Z,37.30
2017-07-23T11:52:14.770Z,37.20
2017-07-23T11:54:43.764Z,39.10
2017-07-23T11:57:12.005Z,39.00
2017-07-23T11:59:40.313Z,38.90
2017-07-23T12:02:08.571Z,38.80
2017-07-23T12:04:36.833Z,39.30
2017-07-23T12:07:05.097Z,39.20
2017-07-23T12:09:33.406Z,39.20
2017-07-23T12:12:01.670Z,38.80
2017-07-23T12:14:29.894Z,38.50
2017-07-23T12:16:58.129Z,37.90
2017-07-23T12:19:26.359Z,38.30
2017-07-23T12:21:54.725Z,37.00
2017-07-23T12:24:23.054Z,38.70
2017-07-23T12:26:51.308Z,38.00
2017-07-23T12:29:19.521Z,37.10
2017-07-23T12:31:47.747Z,38.10
2017-07-23T12:34:16.113Z,38.70
2017-07-23T12:36:44.418Z,38.20
2017-07-23T12:39:12.633Z,38.60
2017-07-23T12:41:40.977Z,38.00
2017-07-23T12:44:09.445Z,38.70
2017-07-23T12:46:37.652Z,36.60
2017-07-23T12:49:05.881Z,37.00
2017-07-23T12:51:34.468Z,37.30
2017-07-23T12:54:03.308Z,37.20
2017-07-23T12:56:31.532Z,37.50
2017-07-23T12:58:59.801Z,38.90
2017-07-23T13:01:28.017Z,39.50
2017-07-23T13:03:56.243Z,39.60
2017-07-23T13:06:24.568Z,39.50
2017-07-23T13:08:52.765Z,39.10
2017-07-23T13:11:21.009Z,37.00
2017-07-23T13:13:49.389Z,38.10
2017-07-23T13:16:17.814Z,40.10
2017-07-23T13:18:46.050Z,39.10
2017-07-23T13:21:14.280Z,39.70
2017-07-23T13:23:42.530Z,40.60
2017-07-23T13:26:10.778Z,40.20
2017-07-23T13:28:38.998Z,40.40
2017-07-23T13:31:07.277Z,39.60
2017-07-23T13:33:35.505Z,39.80
2017-07-23T13:36:03.876Z,39.00
2017-07-23T13:38:32.086Z,39.30
2017-07-23T13:41:00.328Z,38.60
2017-07-23T13:43:28.559Z,38.50
2017-07-23T13:45:57.232Z,39.10
2017-07-23T13:48:25.514Z,38.20
2017-07-23T13:50:53.975Z,38.70
2017-07-23T13:53:22.313Z,38.50
2017-07-23T13:55:50.508Z,37.90
2017-07-23T13:58:19.203Z,38.40
2017-07-23T14:00:47.413Z,39.10
2017-07-23T14:03:15.758Z,39.70
2017-07-23T14:05:44.443Z,40.30
2017-07-23T14:08:12.718Z,40.60
2017-07-23T14:10:41.013Z,40.50
2017-07-23T14:13:09.263Z,39.90
2017-07-23T14:15:37.843Z,40.40
2017-07-23T14:18:06.113Z,39.80
2017-07-23T14:20:34.364Z,39.80
2017-07-23T14:23:02.565Z,40.10
2017-07-23T14:25:31.556Z,39.30
2017-07-23T14:27:59.992Z,39.90
2017-07-23T14:30:28.220Z,40.20
2017-07-23T14:32:57.342Z,41.60
2017-07-23T14:35:25.828Z,41.30
2017-07-23T14:37:54.053Z,40.70
2017-07-23T14:40:22.372Z,40.90
2017-07-23T14:42:50.590Z,40.50
2017-07-23T14:45:18.809Z,40.00
2017-07-23T14:47:47.386Z,40.00
2017-07-23T14:50:15.928Z,40.70
2017-07-23T14:52:44.397Z,40.10
2017-07-23T14:55:12.635Z,40.10
2017-07-23T14:57:41.128Z,40.60
2017-07-23T15:00:10.105Z,39.80
2017-07-23T15:02:38.610Z,39.70
2017-07-23T15:05:06.905Z,39.80
2017-07-23T15:07:35.104Z,41.40
2017-07-23T15:10:03.394Z,39.30
2017-07-23T15:12:32.325Z,39.20
2017-07-23T15:15:00.546Z,40.30
2017-07-23T15:17:28.824Z,40.40
2017-07-23T15:19:57.037Z,39.00
2017-07-23T15:22:25.262Z,41.60
2017-07-23T15:24:53.487Z,39.60
2017-07-23T15:27:21.710Z,39.00
2017-07-23T15:29:49.939Z,40.70
2017-07-23T15:32:18.161Z,41.70
2017-07-23T15:34:46.589Z,40.70
2017-07-23T15:37:14.807Z,41.80
2017-07-23T15:39:43.029Z,40.50
2017-07-23T15:42:11.322Z,40.10
2017-07-23T15:44:40.324Z,40.50
2017-07-23T15:47:08.569Z,40.50
2017-07-23T15:49:36.794Z,40.60
2017-07-23T15:52:05.820Z,40.40
2017-07-23T15:54:34.195Z,40.40
2017-07-23T15:57:02.408Z,41.20
2017-07-23T15:59:30.637Z,40.50
2017-07-23T16:01:58.847Z,40.70
2017-07-23T16:04:27.113Z,40.80
2017-07-23T16:06:55.616Z,41.50
2017-07-23T16:09:23.868Z,41.00
2017-07-23T16:11:52.081Z,40.10
2017-07-23T16:14:20.308Z,41.90
2017-07-23T16:16:48.625Z,40.60
2017-07-23T16:19:16.961Z,42.00
2017-07-23T16:21:45.270Z,42.70
2017-07-23T16:24:13.750Z,41.30
2017-07-23T16:26:42.019Z,40.30
2017-07-23T16:29:10.217Z,41.20
2017-07-23T16:31:38.482Z,40.10
2017-07-23T16:34:06.876Z,40.70
2017-07-23T16:36:35.385Z,40.20
2017-07-23T16:39:03.654Z,40.70
2017-07-23T16:41:32.635Z,41.00
2017-07-23T16:44:01.045Z,41.00
2017-07-23T16:49:04.085Z,41.00
2017-07-23T16:51:32.308Z,41.60
2017-07-23T16:54:00.736Z,45.00
2017-07-23T16:56:28.984Z,42.10
2017-07-23T16:58:58.514Z,43.40
2017-07-23T17:01:26.772Z,41.80
2017-07-23T17:03:55.024Z,43.00
2017-07-23T17:06:24.018Z,42.50
2017-07-23T17:08:52.224Z,42.40
2017-07-23T17:11:20.685Z,42.40
2017-07-23T17:13:49.677Z,42.40
2017-07-23T17:16:17.904Z,42.40
2017-07-23T17:18:46.160Z,43.80
2017-07-23T17:21:14.573Z,43.00
2017-07-23T17:23:43.183Z,42.10
2017-07-23T17:26:11.343Z,43.40
2017-07-23T17:28:39.619Z,43.80
2017-07-23T17:31:07.834Z,44.60
2017-07-23T17:33:36.063Z,46.90
2017-07-23T17:36:04.312Z,44.10
2017-07-23T17:38:32.532Z,43.80
2017-07-23T17:41:00.881Z,42.80
2017-07-23T17:43:29.316Z,46.70
2017-07-23T17:45:58.297Z,46.60
2017-07-23T17:48:26.728Z,46.50
2017-07-23T17:50:54.997Z,50.70
2017-07-23T17:53:23.236Z,49.80
2017-07-23T17:55:51.486Z,51.90
2017-07-23T17:58:19.709Z,52.60
2017-07-23T18:00:47.992Z,54.80
2017-07-23T18:03:16.364Z,52.90
2017-07-23T18:05:44.568Z,55.00
2017-07-23T18:08:12.920Z,54.50
2017-07-23T18:10:41.885Z,55.90
2017-07-23T18:13:10.100Z,55.80
2017-07-23T18:15:38.321Z,57.10
2017-07-23T18:18:06.853Z,57.00
2017-07-23T18:20:35.086Z,56.50
2017-07-23T18:23:03.331Z,57.50
2017-07-23T18:25:31.525Z,57.40
2017-07-23T18:27:59.926Z,58.50
2017-07-23T18:30:28.162Z,59.00
2017-07-23T18:32:56.687Z,59.70
2017-07-23T18:35:26.021Z,60.40
2017-07-23T18:37:54.249Z,59.70
2017-07-23T18:40:22.489Z,59.90
2017-07-23T18:42:51.068Z,60.40
2017-07-23T18:45:19.278Z,60.50
2017-07-23T18:47:47.524Z,60.90
2017-07-23T18:50:15.737Z,61.80
2017-07-23T18:52:44.086Z,62.40
2017-07-23T18:55:12.444Z,62.20
2017-07-23T18:57:41.549Z,64.30
2017-07-23T19:00:09.855Z,64.30
2017-07-23T19:02:38.072Z,64.70
2017-07-23T19:05:06.648Z,64.70
2017-07-23T19:07:35.241Z,65.40
2017-07-23T19:10:03.573Z,65.40
2017-07-23T19:12:31.957Z,64.70
2017-07-23T19:15:00.191Z,64.40
2017-07-23T19:17:28.423Z,65.90
2017-07-23T19:19:56.697Z,64.40
2017-07-23T19:22:25.150Z,65.30
2017-07-23T19:24:53.578Z,66.10
2017-07-23T19:27:21.838Z,66.00
2017-07-23T19:29:50.080Z,67.50
2017-07-23T19:32:18.301Z,65.50
2017-07-23T19:34:47.095Z,66.30
2017-07-23T19:37:15.319Z,67.90
2017-07-23T19:39:43.572Z,68.00
2017-07-23T19:42:11.994Z,67.90
2017-07-23T19:44:40.231Z,68.30
2017-07-23T19:47:08.461Z,68.70
2017-07-23T19:49:36.687Z,69.00
2017-07-23T19:52:04.994Z,68.10
2017-07-23T19:54:33.201Z,67.60
2017-07-23T19:57:01.446Z,70.80
2017-07-23T19:59:29.712Z,68.70
2017-07-23T20:01:57.933Z,68.50
2017-07-23T20:04:26.176Z,68.90
2017-07-23T20:06:54.443Z,69.00
2017-07-23T20:09:23.802Z,68.50
2017-07-23T20:11:52.010Z,68.60
2017-07-23T20:14:20.250Z,68.60
2017-07-23T20:16:48.485Z,68.80
2017-07-23T20:19:17.089Z,69.30
2017-07-23T20:21:45.306Z,69.00
2017-07-23T20:24:14.254Z,68.50
2017-07-23T20:26:42.524Z,68.70
2017-07-23T20:29:10.745Z,68.90
2017-07-23T20:31:39.093Z,69.30
2017-07-23T20:34:08.052Z,69.20
2017-07-23T20:36:37.627Z,69.40
2017-07-23T20:39:05.995Z,69.50
2017-07-23T20:41:34.230Z,69.50
2017-07-23T20:44:02.501Z,69.30
2017-07-23T20:46:30.786Z,68.30
2017-07-23T20:48:59.013Z,68.30
2017-07-23T20:51:27.241Z,68.50
2017-07-23T20:53:55.537Z,68.70
2017-07-23T20:56:23.892Z,68.10
2017-07-23T20:58:52.124Z,67.70
2017-07-23T21:01:20.480Z,67.90
2017-07-23T21:03:48.742Z,68.20
2017-07-23T21:06:16.976Z,68.50
2017-07-23T21:08:45.238Z,68.50
2017-07-23T21:11:13.460Z,68.40
2017-07-23T21:13:41.716Z,67.90
2017-07-23T21:16:10.321Z,67.70
2017-07-23T21:18:38.569Z,67.80
2017-07-23T21:21:07.601Z,68.60
2017-07-23T21:23:35.813Z,68.40
2017-07-23T21:26:04.077Z,67.90
2017-07-23T21:28:32.338Z,67.50
2017-07-23T21:31:00.764Z,68.20
2017-07-23T21:33:28.982Z,68.50
2017-07-23T21:35:57.444Z,69.50
2017-07-23T21:38:25.672Z,68.90
2017-07-23T21:40:53.968Z,69.20
2017-07-23T21:43:22.224Z,69.20
2017-07-23T21:45:50.425Z,69.30
2017-07-23T21:48:18.640Z,68.80
2017-07-23T21:50:46.898Z,69.00
2017-07-23T21:53:15.120Z,69.20
2017-07-23T21:55:43.338Z,69.20
2017-07-23T21:58:11.573Z,69.50
2017-07-23T22:00:39.838Z,70.80
2017-07-23T22:03:08.206Z,71.30
2017-07-23T22:05:36.433Z,73.00
2017-07-23T22:08:04.787Z,73.20
2017-07-23T22:10:32.984Z,73.40
2017-07-23T22:13:01.218Z,74.40
2017-07-23T22:15:29.440Z,75.40
2017-07-23T22:17:57.702Z,75.40
2017-07-23T22:20:25.945Z,76.10
2017-07-23T22:22:54.198Z,76.70
2017-07-23T22:25:22.493Z,76.80
2017-07-23T22:27:51.519Z,76.20
2017-07-23T22:30:19.728Z,76.20
2017-07-23T22:32:47.951Z,77.10
2017-07-23T22:35:16.165Z,76.30
2017-07-23T22:37:44.515Z,75.60
2017-07-23T22:40:12.720Z,75.70
2017-07-23T22:42:41.092Z,75.60
2017-07-23T22:45:09.325Z,75.20
2017-07-23T22:47:38.027Z,75.70
2017-07-23T22:50:06.256Z,75.50
2017-07-23T22:52:34.478Z,75.90
2017-07-23T22:55:02.677Z,75.00
2017-07-23T22:57:31.345Z,75.80
2017-07-23T22:59:59.621Z,74.70
2017-07-23T23:02:27.916Z,74.70
2017-07-23T23:04:56.168Z,75.20
2017-07-23T23:07:25.156Z,75.00
2017-07-23T23:09:53.358Z,75.00
2017-07-23T23:12:21.565Z,74.80
2017-07-23T23:14:49.792Z,75.20
2017-07-23T23:17:18.041Z,74.80
2017-07-23T23:19:46.497Z,74.70
2017-07-23T23:22:14.705Z,74.20
2017-07-23T23:24:43.730Z,73.70
2017-07-23T23:27:11.941Z,73.60
2017-07-23T23:29:40.185Z,73.90
2017-07-23T23:32:08.453Z,74.30
2017-07-23T23:34:36.677Z,74.20
2017-07-23T23:37:04.932Z,74.80
2017-07-23T23:39:33.282Z,75.10
2017-07-23T23:42:01.841Z,74.40
2017-07-23T23:44:30.789Z,74.20
2017-07-23T23:46:59.204Z,74.30
2017-07-23T23:49:27.434Z,75.00
2017-07-23T23:51:55.660Z,74.40
2017-07-23T23:54:24.190Z,74.70
2017-07-23T23:56:52.511Z,75.40
2017-07-23T23:59:20.780Z,75.00
